Time;durP1;ratioP1;P1;durP2;ratioP2;P2;SDS_P1;SDS_P2;PMS_P1;PMS_P2;Temp;Humidity;BMP_temperature;BMP_pressure;BME280_temperature;BME280_humidity;BME280_pressure;Samples;Min_cycle;Max_cycle;Signal;HPM_P1;HPM_P2
2021/10/27 00:01:29;;;;;;;100.60;19.00;;;6.10;99.90;;;;;;4966351;28;20206;-60
2021/10/27 00:03:54;;;;;;;51.80;19.20;;;6.00;99.90;;;;;;4970393;28;20558;-60
2021/10/27 00:06:20;;;;;;;84.10;19.83;;;6.00;99.90;;;;;;4969833;28;20204;-59
2021/10/27 00:08:49;;;;;;;83.57;20.87;;;6.00;99.90;;;;;;4977088;28;20177;-59
2021/10/27 00:11:16;;;;;;;42.50;13.83;;;6.00;99.90;;;;;;4979258;28;20516;-60
2021/10/27 00:13:43;;;;;;;61.97;14.60;;;5.90;99.90;;;;;;4968937;28;20444;-60
2021/10/27 00:16:08;;;;;;;66.50;17.00;;;5.90;99.90;;;;;;4968121;28;20782;-60
2021/10/27 00:18:34;;;;;;;98.73;17.10;;;5.90;99.90;;;;;;4970943;28;20966;-60
2021/10/27 00:21:00;;;;;;;72.43;16.73;;;5.90;99.90;;;;;;4970936;28;20170;-60
2021/10/27 00:23:26;;;;;;;59.00;14.83;;;5.90;99.90;;;;;;4985648;28;20174;-60
2021/10/27 00:25:51;;;;;;;87.03;16.50;;;5.90;99.90;;;;;;4970248;28;20229;-59
2021/10/27 00:28:17;;;;;;;45.13;12.57;;;5.90;99.90;;;;;;4967403;28;20545;-60
2021/10/27 00:30:43;;;;;;;35.67;11.50;;;5.80;99.90;;;;;;4968427;28;20182;-60
2021/10/27 00:33:08;;;;;;;49.10;10.63;;;5.80;99.90;;;;;;4973049;28;20701;-60
2021/10/27 00:35:34;;;;;;;50.37;10.90;;;5.80;99.90;;;;;;4956809;28;20684;-59
2021/10/27 00:38:00;;;;;;;66.57;12.97;;;5.80;99.90;;;;;;4976025;28;20182;-59
2021/10/27 00:40:26;;;;;;;40.10;9.73;;;5.80;99.90;;;;;;4988886;28;20195;-60
2021/10/27 00:42:54;;;;;;;88.43;12.80;;;5.70;99.90;;;;;;4987253;28;20284;-60
2021/10/27 00:45:20;;;;;;;53.57;12.33;;;5.70;99.90;;;;;;4970714;28;20203;-59
2021/10/27 00:47:46;;;;;;;88.37;14.00;;;5.70;99.90;;;;;;4975042;28;20649;-60
2021/10/27 00:50:12;;;;;;;45.67;10.70;;;5.70;99.90;;;;;;4979905;28;20260;-60
2021/10/27 00:52:40;;;;;;;95.93;11.87;;;5.60;99.90;;;;;;4979236;28;21047;-60
2021/10/27 00:55:06;;;;;;;23.57;9.10;;;5.60;99.90;;;;;;4993460;28;20170;-60
2021/10/27 00:57:33;;;;;;;24.93;9.80;;;5.50;99.90;;;;;;4982610;28;20409;-59
2021/10/27 00:59:59;;;;;;;31.70;8.60;;;5.50;99.90;;;;;;4970271;28;20459;-60
2021/10/27 01:02:25;;;;;;;38.77;9.23;;;5.50;99.90;;;;;;4983904;28;20492;-60
2021/10/27 01:04:53;;;;;;;106.57;11.90;;;5.50;99.90;;;;;;4963282;28;20469;-60
2021/10/27 01:07:19;;;;;;;36.77;10.53;;;5.40;99.90;;;;;;4975845;28;20178;-60
2021/10/27 01:09:45;;;;;;;37.60;8.07;;;5.40;99.90;;;;;;4993827;28;20803;-59
2021/10/27 01:12:10;;;;;;;68.20;11.50;;;5.30;99.90;;;;;;4978444;28;20729;-60
2021/10/27 01:14:46;;;;;;;25.73;9.80;;;5.30;99.90;;;;;;4972398;28;20556;-60
2021/10/27 01:17:15;;;;;;;20.50;7.43;;;5.30;99.90;;;;;;4973892;28;20196;-60
2021/10/27 01:19:51;;;;;;;15.53;7.87;;;5.30;99.90;;;;;;4968485;28;20896;-60
2021/10/27 01:22:21;;;;;;;37.07;9.90;;;5.30;99.90;;;;;;4973910;28;20440;-60
2021/10/27 01:24:46;;;;;;;20.70;8.57;;;5.20;99.90;;;;;;4972310;28;20430;-60
2021/10/27 01:27:12;;;;;;;32.40;10.70;;;5.20;99.90;;;;;;4969879;28;20535;-60
2021/10/27 01:29:38;;;;;;;53.37;8.23;;;5.20;99.90;;;;;;4972993;28;20225;-59
2021/10/27 01:32:05;;;;;;;27.70;7.60;;;5.20;99.90;;;;;;5004823;28;20440;-60
2021/10/27 01:34:31;;;;;;;24.23;8.57;;;5.20;99.90;;;;;;4959067;28;20541;-60
2021/10/27 01:36:57;;;;;;;17.33;6.80;;;5.20;99.90;;;;;;4959699;28;20512;-60
2021/10/27 01:39:23;;;;;;;38.93;9.33;;;5.20;99.90;;;;;;4965516;28;20233;-60
2021/10/27 01:41:50;;;;;;;26.47;7.90;;;5.20;99.90;;;;;;4968101;28;20926;-60
2021/10/27 01:44:16;;;;;;;23.40;8.40;;;5.20;99.90;;;;;;4972401;28;20169;-60
2021/10/27 01:46:42;;;;;;;18.17;8.70;;;5.10;99.90;;;;;;4969537;28;20461;-60
2021/10/27 01:49:09;;;;;;;21.73;8.70;;;5.10;99.90;;;;;;4967170;28;20519;-60
2021/10/27 01:51:36;;;;;;;56.07;8.00;;;5.10;99.90;;;;;;4968118;28;20512;-60
2021/10/27 01:54:05;;;;;;;31.30;8.10;;;5.10;99.90;;;;;;4967173;28;20421;-59
2021/10/27 01:56:31;;;;;;;26.13;7.80;;;5.10;99.90;;;;;;4971200;28;20437;-59
2021/10/27 01:58:58;;;;;;;37.20;10.07;;;5.10;99.90;;;;;;4970990;28;20962;-60
2021/10/27 02:01:23;;;;;;;42.77;10.20;;;5.10;99.90;;;;;;4969544;28;20453;-59
2021/10/27 02:03:49;;;;;;;34.40;10.63;;;5.00;99.90;;;;;;4970703;28;20832;-59
2021/10/27 02:06:15;;;;;;;28.70;10.10;;;5.00;99.90;;;;;;4971188;28;20199;-60
2021/10/27 02:08:42;;;;;;;26.23;10.27;;;5.00;99.90;;;;;;4974417;28;20800;-61
2021/10/27 02:11:09;;;;;;;37.00;12.03;;;5.00;99.90;;;;;;4970211;28;20965;-59
2021/10/27 02:13:34;;;;;;;40.20;11.90;;;5.00;99.90;;;;;;4971580;28;20425;-60
2021/10/27 02:16:00;;;;;;;49.27;11.87;;;5.00;99.90;;;;;;4967952;28;20818;-60
2021/10/27 02:18:26;;;;;;;94.27;17.80;;;4.90;99.90;;;;;;4980748;28;20189;-59
2021/10/27 02:20:52;;;;;;;103.03;18.03;;;4.90;99.90;;;;;;4971746;28;20181;-60
2021/10/27 02:23:18;;;;;;;68.37;15.80;;;4.90;99.90;;;;;;4973647;28;20445;-60
2021/10/27 02:25:43;;;;;;;43.33;13.27;;;4.90;99.90;;;;;;4962989;28;20457;-60
2021/10/27 02:28:10;;;;;;;63.27;12.97;;;4.80;99.90;;;;;;4963519;28;20665;-59
2021/10/27 02:30:35;;;;;;;71.00;12.20;;;4.80;99.90;;;;;;4953968;28;20728;-59
2021/10/27 02:33:02;;;;;;;25.17;9.37;;;4.80;99.90;;;;;;4972180;28;20541;-59
2021/10/27 02:35:29;;;;;;;28.90;10.23;;;4.80;99.90;;;;;;4971058;28;20213;-60
2021/10/27 02:37:54;;;;;;;55.43;10.70;;;4.80;99.90;;;;;;4972965;28;20457;-60
2021/10/27 02:40:20;;;;;;;41.27;10.60;;;4.80;99.90;;;;;;4972903;28;20816;-60
2021/10/27 02:42:46;;;;;;;33.00;9.00;;;4.80;99.90;;;;;;4972253;28;20264;-60
2021/10/27 02:45:12;;;;;;;35.93;9.60;;;4.80;99.90;;;;;;4959144;28;20189;-60
2021/10/27 02:47:38;;;;;;;20.27;7.93;;;4.80;99.90;;;;;;4964692;28;20238;-59
2021/10/27 02:50:05;;;;;;;21.23;7.87;;;4.80;99.90;;;;;;4972222;28;20405;-60
2021/10/27 02:52:31;;;;;;;26.47;7.40;;;4.80;99.90;;;;;;4978686;28;20448;-60
2021/10/27 02:54:57;;;;;;;12.43;6.07;;;4.70;99.90;;;;;;4963367;28;20413;-59
2021/10/27 02:57:23;;;;;;;19.43;6.70;;;4.70;99.90;;;;;;4984670;28;20433;-58
2021/10/27 02:59:49;;;;;;;10.37;5.97;;;4.70;99.90;;;;;;4967761;28;20436;-60
2021/10/27 03:02:15;;;;;;;9.33;5.37;;;4.70;99.90;;;;;;4962642;28;20468;-60
2021/10/27 03:04:43;;;;;;;7.03;4.80;;;4.60;99.90;;;;;;4971246;28;20197;-60
2021/10/27 03:07:09;;;;;;;19.03;4.87;;;4.60;99.90;;;;;;4977872;28;20513;-59
2021/10/27 03:09:35;;;;;;;13.87;5.00;;;4.60;99.90;;;;;;4984286;28;20409;-60
2021/10/27 03:12:01;;;;;;;46.93;5.33;;;4.50;99.90;;;;;;4958865;28;20333;-60
2021/10/27 03:14:28;;;;;;;8.77;5.03;;;4.50;99.90;;;;;;4952266;28;20410;-60
2021/10/27 03:16:54;;;;;;;20.77;4.27;;;4.40;99.90;;;;;;4958725;28;20414;-60
2021/10/27 03:19:20;;;;;;;11.40;5.10;;;4.40;99.90;;;;;;4963434;28;21021;-60
2021/10/27 03:21:45;;;;;;;15.20;4.40;;;4.40;99.90;;;;;;4958964;28;20486;-60
2021/10/27 03:24:11;;;;;;;8.13;4.70;;;4.40;99.90;;;;;;4971133;28;20413;-60
2021/10/27 03:26:37;;;;;;;8.10;4.23;;;4.40;99.90;;;;;;4970429;28;20193;-60
2021/10/27 03:29:02;;;;;;;13.07;5.60;;;4.30;99.90;;;;;;4969813;28;20170;-60
2021/10/27 03:31:28;;;;;;;19.50;5.10;;;4.40;99.90;;;;;;4971342;28;20670;-59
2021/10/27 03:33:54;;;;;;;13.10;4.40;;;4.30;99.90;;;;;;4968897;28;20189;-60
2021/10/27 03:36:20;;;;;;;13.63;5.17;;;4.30;99.90;;;;;;4968771;28;20173;-59
2021/10/27 03:38:45;;;;;;;9.50;4.53;;;4.30;99.90;;;;;;4973769;28;20601;-60
2021/10/27 03:41:13;;;;;;;17.17;4.60;;;4.30;99.90;;;;;;4966004;28;20272;-60
2021/10/27 03:43:39;;;;;;;9.97;4.57;;;4.20;99.90;;;;;;4969858;28;20726;-60
2021/10/27 03:46:04;;;;;;;12.80;4.90;;;4.30;99.90;;;;;;4966868;28;20552;-60
2021/10/27 03:48:30;;;;;;;5.10;4.17;;;4.30;99.90;;;;;;4971438;28;20211;-60
2021/10/27 03:50:56;;;;;;;10.13;4.37;;;4.30;99.90;;;;;;4969307;28;20180;-59
2021/10/27 03:53:21;;;;;;;11.90;4.57;;;4.20;99.90;;;;;;4971162;28;20205;-61
2021/10/27 03:55:47;;;;;;;20.37;4.83;;;4.30;99.90;;;;;;4969836;28;20170;-59
2021/10/27 03:58:13;;;;;;;23.73;4.20;;;4.30;99.90;;;;;;4970981;28;20169;-60
2021/10/27 04:00:39;;;;;;;38.67;5.10;;;4.30;99.90;;;;;;4970258;28;20607;-60
2021/10/27 04:03:05;;;;;;;9.80;4.63;;;4.20;99.90;;;;;;4973930;28;20700;-60
2021/10/27 04:05:31;;;;;;;11.40;4.50;;;4.20;99.90;;;;;;4981119;28;20474;-59
2021/10/27 04:07:57;;;;;;;27.10;4.43;;;4.20;99.90;;;;;;4978561;28;20967;-60
2021/10/27 04:10:23;;;;;;;20.13;5.03;;;4.20;99.90;;;;;;4973451;28;20177;-60
2021/10/27 04:12:48;;;;;;;10.23;4.27;;;4.20;99.90;;;;;;4983000;28;20188;-58
2021/10/27 04:15:17;;;;;;;21.47;4.90;;;4.20;99.90;;;;;;4966411;28;20846;-58
2021/10/27 04:17:43;;;;;;;31.93;4.97;;;4.10;99.90;;;;;;4963292;28;20897;-59
2021/10/27 04:20:10;;;;;;;45.20;4.83;;;4.00;99.90;;;;;;4971693;28;20456;-60
2021/10/27 04:22:38;;;;;;;13.13;4.13;;;4.00;99.90;;;;;;5000906;28;20204;-60
2021/10/27 04:25:06;;;;;;;31.23;5.27;;;3.90;99.90;;;;;;4981456;28;20454;-60
2021/10/27 04:27:32;;;;;;;14.67;4.20;;;3.90;99.90;;;;;;4966210;28;20429;-59
2021/10/27 04:29:57;;;;;;;25.33;4.97;;;3.90;99.90;;;;;;4972142;28;20419;-60
2021/10/27 04:32:23;;;;;;;26.50;4.90;;;3.90;99.90;;;;;;4965960;28;20279;-59
2021/10/27 04:34:50;;;;;;;41.03;5.00;;;3.90;99.90;;;;;;4970551;28;20201;-60
2021/10/27 04:37:16;;;;;;;46.67;4.70;;;3.90;99.90;;;;;;4968143;28;20188;-60
2021/10/27 04:39:42;;;;;;;29.33;4.87;;;3.80;99.90;;;;;;4960937;28;20439;-57
2021/10/27 04:42:08;;;;;;;12.93;5.07;;;3.80;99.90;;;;;;4967099;28;20981;-56
2021/10/27 04:44:33;;;;;;;14.03;4.67;;;3.80;99.90;;;;;;4962746;28;20443;-56
2021/10/27 04:47:03;;;;;;;52.93;6.40;;;3.80;99.90;;;;;;4965603;28;20423;-58
2021/10/27 04:49:29;;;;;;;27.87;4.70;;;3.80;99.90;;;;;;4963440;28;20166;-60
2021/10/27 04:51:55;;;;;;;9.17;4.17;;;3.80;99.90;;;;;;4961365;28;20514;-60
2021/10/27 04:54:20;;;;;;;92.33;6.23;;;3.80;99.90;;;;;;4967625;28;20460;-59
2021/10/27 04:56:46;;;;;;;25.43;4.60;;;3.80;99.90;;;;;;4965095;28;20189;-60
2021/10/27 04:59:12;;;;;;;27.77;4.50;;;3.80;99.90;;;;;;4961528;28;20178;-60
2021/10/27 05:01:38;;;;;;;31.37;5.47;;;3.80;99.90;;;;;;4980846;28;20461;-61
2021/10/27 05:04:04;;;;;;;30.23;5.93;;;3.80;99.90;;;;;;4964863;28;20437;-60
2021/10/27 05:06:30;;;;;;;36.33;5.20;;;3.80;99.90;;;;;;4966190;28;20192;-60
2021/10/27 05:08:56;;;;;;;18.50;4.47;;;3.80;99.90;;;;;;4964314;28;21122;-60
2021/10/27 05:11:21;;;;;;;13.40;4.10;;;3.80;99.90;;;;;;4973972;28;20198;-60
2021/10/27 05:13:47;;;;;;;24.87;6.80;;;3.70;99.90;;;;;;4964390;28;20188;-58
2021/10/27 05:16:13;;;;;;;10.70;4.97;;;3.70;99.90;;;;;;4968560;28;20245;-61
2021/10/27 05:18:38;;;;;;;10.00;5.70;;;3.70;99.90;;;;;;4972994;28;20225;-60
2021/10/27 05:21:04;;;;;;;31.67;6.37;;;3.70;99.90;;;;;;4976334;28;20833;-59
2021/10/27 05:23:30;;;;;;;16.60;6.30;;;3.70;99.90;;;;;;4981909;28;20273;-59
2021/10/27 05:25:55;;;;;;;27.97;6.70;;;3.70;99.90;;;;;;4965871;28;20200;-59
2021/10/27 05:28:21;;;;;;;64.63;8.57;;;3.70;99.90;;;;;;4960604;28;20175;-60
2021/10/27 05:30:47;;;;;;;15.93;5.93;;;3.70;99.90;;;;;;4971914;28;20176;-60
2021/10/27 05:33:14;;;;;;;32.73;6.97;;;3.60;99.90;;;;;;4965362;28;20667;-60
2021/10/27 05:35:40;;;;;;;45.27;9.50;;;3.60;99.90;;;;;;4968992;28;21000;-59
2021/10/27 05:38:06;;;;;;;81.40;8.77;;;3.60;99.90;;;;;;4973081;28;20428;-60
2021/10/27 05:40:32;;;;;;;86.77;8.70;;;3.50;99.90;;;;;;4968849;28;20942;-60
2021/10/27 05:42:58;;;;;;;57.53;9.20;;;3.50;99.90;;;;;;4961884;28;20624;-60
2021/10/27 05:45:26;;;;;;;153.93;13.57;;;3.50;99.90;;;;;;4967421;28;20210;-60
2021/10/27 05:47:57;;;;;;;117.00;11.93;;;3.50;99.90;;;;;;4965726;28;20413;-60
2021/10/27 05:50:28;;;;;;;65.00;11.07;;;3.40;99.90;;;;;;4971789;28;20433;-60
2021/10/27 05:55:39;;;;;;;108.77;14.30;;;3.30;99.90;;;;;;4962729;28;20456;-60
2021/10/27 05:58:06;;;;;;;56.13;12.20;;;3.30;99.90;;;;;;4964519;28;21006;-60
2021/10/27 06:00:32;;;;;;;58.03;12.10;;;3.30;99.90;;;;;;4969592;28;20495;-60
2021/10/27 06:02:58;;;;;;;54.70;12.67;;;3.30;99.90;;;;;;4964967;28;20455;-60
2021/10/27 06:05:24;;;;;;;45.53;16.17;;;3.30;99.90;;;;;;4969726;28;20461;-60
2021/10/27 06:07:51;;;;;;;45.33;12.53;;;3.30;99.90;;;;;;4968355;28;20433;-60
2021/10/27 06:10:21;;;;;;;39.40;11.00;;;3.40;99.90;;;;;;4967519;28;20212;-59
2021/10/27 06:12:49;;;;;;;17.37;6.40;;;3.40;99.90;;;;;;4963566;28;20449;-59
2021/10/27 06:15:19;;;;;;;21.30;5.60;;;3.40;99.90;;;;;;4962843;28;20469;-59
2021/10/27 06:17:46;;;;;;;51.17;5.97;;;3.40;99.90;;;;;;4961796;28;20430;-60
2021/10/27 06:20:13;;;;;;;17.50;4.77;;;3.40;99.90;;;;;;4970532;28;21005;-59
2021/10/27 06:22:39;;;;;;;9.47;4.80;;;3.30;99.90;;;;;;4984529;28;20445;-60
2021/10/27 06:25:08;;;;;;;42.03;6.00;;;3.30;99.90;;;;;;4968686;28;20444;-59
2021/10/27 06:27:34;;;;;;;42.23;5.50;;;3.40;99.90;;;;;;4967114;28;20247;-59
2021/10/27 06:30:08;;;;;;;21.53;4.70;;;3.30;99.90;;;;;;4984562;28;20491;-60
2021/10/27 06:35:05;;;;;;;14.30;4.40;;;3.30;99.90;;;;;;4964703;28;20556;-60
2021/10/27 06:48:18;;;;;;;20.03;4.90;;;3.40;99.90;;;;;;4960244;28;20531;-58
2021/10/27 06:50:44;;;;;;;9.30;4.77;;;3.40;99.90;;;;;;4968201;28;20516;-60
2021/10/27 06:53:10;;;;;;;12.93;4.40;;;3.40;99.90;;;;;;4966391;28;20212;-59
2021/10/27 06:55:38;;;;;;;30.43;5.20;;;3.50;99.90;;;;;;4960191;28;20702;-60
2021/10/27 06:58:04;;;;;;;22.63;5.03;;;3.50;99.90;;;;;;4969268;28;20933;-59
2021/10/27 07:05:44;;;;;;;16.40;5.43;;;3.60;99.90;;;;;;4962658;28;20188;-59
2021/10/27 07:16:22;;;;;;;19.87;5.23;;;3.70;99.90;;;;;;4969502;28;20443;-60
2021/10/27 07:18:47;;;;;;;13.13;4.70;;;3.80;99.90;;;;;;4970440;28;20474;-60
2021/10/27 07:21:13;;;;;;;19.27;4.83;;;3.80;99.90;;;;;;4974430;28;20610;-60
2021/10/27 07:23:40;;;;;;;8.73;4.67;;;3.80;99.90;;;;;;4966604;28;20729;-59
2021/10/27 07:26:06;;;;;;;12.70;4.27;;;3.90;99.90;;;;;;4958841;28;20195;-60
2021/10/27 07:28:33;;;;;;;38.70;5.43;;;3.90;99.90;;;;;;4966946;28;20424;-58
2021/10/27 07:31:00;;;;;;;16.40;5.10;;;3.90;99.90;;;;;;4962770;28;21083;-60
2021/10/27 07:33:28;;;;;;;20.83;4.73;;;3.90;99.90;;;;;;4966619;28;20468;-59
2021/10/27 07:35:59;;;;;;;17.13;3.80;;;3.90;99.90;;;;;;4964309;28;20961;-59
2021/10/27 07:41:11;;;;;;;7.10;4.03;;;3.90;99.90;;;;;;4963623;28;20537;-60
2021/10/27 07:43:36;;;;;;;5.33;4.13;;;3.90;99.90;;;;;;4967339;28;20433;-60
2021/10/27 07:46:03;;;;;;;19.47;5.03;;;3.90;99.90;;;;;;4963777;28;20923;-60
2021/10/27 07:48:31;;;;;;;12.80;4.53;;;4.00;99.90;;;;;;4964343;28;20205;-59
2021/10/27 07:50:59;;;;;;;12.23;4.90;;;4.00;99.90;;;;;;4969704;28;20483;-61
2021/10/27 07:53:27;;;;;;;6.83;4.20;;;4.10;99.90;;;;;;4964780;28;20433;-60
2021/10/27 07:55:54;;;;;;;6.50;4.40;;;4.10;99.90;;;;;;4968495;28;20511;-59
2021/10/27 07:58:22;;;;;;;5.83;3.80;;;4.20;99.90;;;;;;4962005;28;20971;-60
2021/10/27 08:00:51;;;;;;;3.63;3.33;;;4.20;99.90;;;;;;4967989;28;20441;-59
2021/10/27 08:03:18;;;;;;;7.30;4.03;;;4.30;99.90;;;;;;4969295;28;20460;-59
2021/10/27 08:05:44;;;;;;;6.57;4.57;;;4.40;99.90;;;;;;4969642;28;20953;-59
2021/10/27 08:08:12;;;;;;;4.33;3.93;;;4.50;99.90;;;;;;4965361;28;20433;-60
2021/10/27 08:10:38;;;;;;;7.30;4.30;;;4.50;99.90;;;;;;4967389;28;20463;-60
2021/10/27 08:13:05;;;;;;;8.73;5.50;;;4.60;99.90;;;;;;4965202;28;20527;-60
2021/10/27 08:15:32;;;;;;;9.60;5.70;;;4.60;99.90;;;;;;4959872;28;20503;-60
2021/10/27 08:17:58;;;;;;;11.37;6.17;;;4.70;99.90;;;;;;4968057;28;20805;-59
2021/10/27 08:20:26;;;;;;;19.37;7.50;;;4.80;99.90;;;;;;4965711;28;20437;-60
2021/10/27 08:23:04;;;;;;;24.43;8.20;;;4.90;99.90;;;;;;4969064;28;21006;-60
2021/10/27 08:28:06;;;;;;;20.27;6.57;;;5.10;99.90;;;;;;4963710;28;20496;-59
2021/10/27 08:30:38;;;;;;;26.77;8.80;;;5.20;99.90;;;;;;4966069;28;20797;-59
2021/10/27 08:33:06;;;;;;;18.20;7.60;;;5.30;99.90;;;;;;4965043;28;20464;-59
2021/10/27 08:35:34;;;;;;;15.90;5.63;;;5.40;99.90;;;;;;4968550;28;20517;-60
2021/10/27 08:38:01;;;;;;;16.63;5.90;;;5.50;99.90;;;;;;4957617;28;20440;-61
2021/10/27 08:40:28;;;;;;;10.30;5.33;;;5.60;99.90;;;;;;4966483;28;20852;-60
2021/10/27 08:42:58;;;;;;;11.80;5.30;;;5.70;99.90;;;;;;4964601;28;20449;-59
2021/10/27 08:45:25;;;;;;;16.33;5.70;;;5.80;99.90;;;;;;4966411;28;20524;-61
2021/10/27 08:47:52;;;;;;;11.00;5.40;;;5.90;99.90;;;;;;4964899;28;20926;-59
2021/10/27 08:50:20;;;;;;;10.47;5.23;;;6.00;99.90;;;;;;4966642;28;20923;-60
2021/10/27 08:52:46;;;;;;;7.67;4.40;;;6.10;99.90;;;;;;4966752;28;20464;-60
2021/10/27 08:55:14;;;;;;;15.20;5.50;;;6.20;99.90;;;;;;4969315;28;20866;-60
2021/10/27 08:57:43;;;;;;;12.37;5.80;;;6.20;99.90;;;;;;4968023;28;20441;-60
2021/10/27 09:05:14;;;;;;;16.03;7.70;;;6.60;99.90;;;;;;4963000;28;20826;-61
2021/10/27 09:08:10;;;;;;;18.47;7.20;;;6.70;99.90;;;;;;4970982;28;20425;-61
2021/10/27 09:35:28;;;;;;;34.40;15.03;;;7.80;99.90;;;;;;4969590;28;20471;-60
2021/10/27 10:05:04;;;;;;;22.73;13.97;;;9.80;99.90;;;;;;4972134;28;20463;-59
2021/10/27 10:07:29;;;;;;;25.80;13.67;;;10.00;99.90;;;;;;4971362;28;20460;-59
2021/10/27 10:09:57;;;;;;;25.90;12.63;;;10.20;99.90;;;;;;4957066;28;20434;-60
2021/10/27 10:12:23;;;;;;;22.93;13.13;;;10.30;99.90;;;;;;4969713;28;20213;-59
2021/10/27 10:14:50;;;;;;;24.63;12.03;;;10.50;99.90;;;;;;4970511;28;20414;-59
2021/10/27 10:17:16;;;;;;;22.70;12.50;;;10.60;99.90;;;;;;4971867;28;21104;-62
2021/10/27 10:19:43;;;;;;;27.40;14.33;;;10.80;99.90;;;;;;4975556;28;20447;-59
2021/10/27 10:22:37;;;;;;;27.90;13.47;;;10.90;99.90;;;;;;4972956;28;20472;-61
2021/10/27 10:25:18;;;;;;;23.73;12.90;;;11.10;99.90;;;;;;4968763;28;20447;-60
2021/10/27 10:27:48;;;;;;;26.03;13.10;;;11.20;99.90;;;;;;4973776;28;20441;-61
2021/10/27 10:30:33;;;;;;;21.57;11.80;;;11.30;99.90;;;;;;4969288;28;20467;-60
2021/10/27 10:33:05;;;;;;;22.43;13.23;;;11.50;99.90;;;;;;4966650;28;20463;-56
2021/10/27 11:37:19;;;;;;;5.73;4.40;;;18.20;64.50;;;;;;4970290;28;20460;-61
2021/10/27 11:40:57;;;;;;;6.00;3.77;;;20.20;55.60;;;;;;4971150;28;20434;-61
2021/10/27 11:43:35;;;;;;;5.67;3.43;;;20.60;54.00;;;;;;4972763;28;20590;-62
2021/10/27 11:48:50;;;;;;;3.50;3.10;;;21.50;50.90;;;;;;4970509;28;20170;-59
2021/10/27 11:51:16;;;;;;;5.87;3.57;;;21.80;49.00;;;;;;4967531;28;20280;-60
2021/10/27 11:53:46;;;;;;;8.10;2.83;;;22.20;48.80;;;;;;4960932;28;20196;-60
2021/10/27 11:56:15;;;;;;;3.03;2.40;;;22.70;47.90;;;;;;4965589;28;20189;-57
2021/10/27 11:58:46;;;;;;;6.55;2.40;;;23.00;46.50;;;;;;4970717;28;20173;-58
2021/10/27 12:01:24;;;;;;;7.97;3.08;;;23.40;46.80;;;;;;4970551;28;20181;-58
2021/10/27 12:03:50;;;;;;;3.88;2.30;;;23.80;45.80;;;;;;4982560;28;20178;-58
2021/10/27 12:06:39;;;;;;;5.63;2.55;;;24.00;44.40;;;;;;4967449;28;20205;-58
2021/10/27 12:09:23;;;;;;;8.20;2.45;;;24.40;44.40;;;;;;4981149;28;20180;-60
2021/10/27 12:12:09;;;;;;;2.63;2.40;;;24.90;43.10;;;;;;4961717;28;20224;-58
2021/10/27 12:15:21;;;;;;;4.57;2.10;;;24.90;41.70;;;;;;4965565;28;20655;-59
2021/10/27 12:17:39;;;;;;;7.15;2.33;;;25.10;41.60;;;;;;4965523;28;20184;-60
2021/10/27 12:20:05;;;;;;;2.83;2.08;;;25.20;40.70;;;;;;4960364;28;20203;-58
2021/10/27 12:22:36;;;;;;;3.67;2.00;;;25.30;40.60;;;;;;4962031;28;20201;-59
2021/10/27 12:25:08;;;;;;;3.55;2.08;;;25.50;39.90;;;;;;4966996;28;20264;-59
2021/10/27 12:27:40;;;;;;;3.47;1.90;;;25.70;39.40;;;;;;4962733;28;20199;-59
2021/10/27 12:30:16;;;;;;;2.42;2.20;;;26.10;39.00;;;;;;4963633;28;20178;-60
2021/10/27 12:32:55;;;;;;;1.90;1.73;;;26.30;38.50;;;;;;4965890;28;20688;-59
2021/10/27 12:35:27;;;;;;;4.68;1.90;;;26.50;37.50;;;;;;4967040;28;20188;-60
2021/10/27 12:38:16;;;;;;;3.03;1.67;;;26.40;37.10;;;;;;4969083;28;20187;-60
2021/10/27 12:40:44;;;;;;;1.42;1.30;;;26.40;36.80;;;;;;4967015;28;20247;-59
2021/10/27 12:43:14;;;;;;;2.65;1.75;;;25.90;36.70;;;;;;4964515;28;20635;-59
2021/10/27 12:45:46;;;;;;;4.07;1.90;;;24.90;37.80;;;;;;4964359;28;20191;-60
2021/10/27 12:48:17;;;;;;;2.95;1.90;;;23.40;39.20;;;;;;4964019;28;20173;-60
2021/10/27 12:50:58;;;;;;;3.28;2.15;;;21.90;41.00;;;;;;4967681;28;20177;-60
2021/10/27 12:53:30;;;;;;;5.63;2.23;;;20.70;42.90;;;;;;4966480;28;20197;-60
2021/10/27 12:56:15;;;;;;;3.27;1.97;;;19.90;44.80;;;;;;4967345;28;20323;-60
2021/10/27 12:58:55;;;;;;;5.97;2.00;;;19.40;46.20;;;;;;4965447;28;20507;-58
2021/10/27 13:07:30;;;;;;;4.07;2.43;;;19.20;47.30;;;;;;4967670;28;21123;-58
2021/10/27 13:12:54;;;;;;;3.33;1.97;;;21.40;44.90;;;;;;4972685;28;20498;-59
2021/10/27 13:15:41;;;;;;;2.90;2.23;;;22.40;42.80;;;;;;4966261;28;20751;-59
2021/10/27 13:18:27;;;;;;;2.73;1.77;;;23.00;41.60;;;;;;4971184;28;20866;-60
2021/10/27 13:24:00;;;;;;;5.60;1.60;;;23.30;39.90;;;;;;4964761;28;20429;-58
2021/10/27 13:31:56;;;;;;;2.30;1.50;;;23.10;39.90;;;;;;4970102;28;20451;-60
2021/10/27 13:34:23;;;;;;;2.13;1.57;;;23.10;40.00;;;;;;4970324;28;20503;-59
2021/10/27 13:36:50;;;;;;;2.50;1.37;;;23.00;40.00;;;;;;4969180;28;20460;-61
2021/10/27 13:39:16;;;;;;;3.77;2.00;;;22.90;39.90;;;;;;4972978;28;20491;-59
2021/10/27 13:41:46;;;;;;;2.90;2.00;;;22.70;39.50;;;;;;4974479;28;20477;-60
2021/10/27 13:44:19;;;;;;;2.03;1.60;;;22.40;39.70;;;;;;4970219;28;20169;-60
2021/10/27 14:08:39;;;;;;;2.03;1.60;;;22.10;39.80;;;;;;4959546;28;20587;-54
2021/10/27 14:11:12;;;;;;;3.00;1.57;;;22.40;39.20;;;;;;4970182;28;20535;-55
2021/10/27 15:21:22;;;;;;;3.80;1.80;;;14.30;50.20;;;;;;4962169;28;20797;-55
2021/10/27 15:53:00;;;;;;;18.93;10.90;;;12.80;59.80;;;;;;4961413;28;20480;-60
2021/10/27 15:55:26;;;;;;;19.23;11.30;;;12.60;63.40;;;;;;4960736;28;21160;-59
2021/10/27 15:57:52;;;;;;;22.17;13.07;;;12.50;67.50;;;;;;4961657;28;20736;-55
2021/10/27 16:00:21;;;;;;;21.37;12.87;;;12.30;71.40;;;;;;4955948;28;21154;-56
2021/10/27 16:02:47;;;;;;;20.47;11.50;;;12.20;74.90;;;;;;4958361;28;20200;-56
2021/10/27 16:05:12;;;;;;;18.40;11.10;;;12.00;78.60;;;;;;4959684;28;20437;-56
2021/10/27 16:07:41;;;;;;;10.43;6.33;;;11.90;81.70;;;;;;4956707;28;20181;-54
2021/10/27 16:10:14;;;;;;;11.77;5.70;;;11.80;85.00;;;;;;4958070;28;20174;-57
2021/10/27 16:12:40;;;;;;;10.00;4.93;;;11.70;87.50;;;;;;4961002;28;20991;-57
2021/10/27 16:15:36;;;;;;;18.77;9.67;;;11.60;90.00;;;;;;4962567;28;20433;-59
2021/10/27 16:17:53;;;;;;;18.50;12.07;;;11.40;90.70;;;;;;4955702;28;20470;-59
2021/10/27 16:20:19;;;;;;;16.30;10.23;;;11.30;91.70;;;;;;4953176;28;20565;-59
2021/10/27 16:22:45;;;;;;;23.80;12.60;;;11.20;92.50;;;;;;4956498;28;20449;-59
2021/10/27 16:25:11;;;;;;;15.00;9.40;;;11.10;93.20;;;;;;4965244;28;20440;-59
2021/10/27 16:27:37;;;;;;;11.27;6.80;;;11.00;93.90;;;;;;4970200;28;20181;-60
2021/10/27 16:30:05;;;;;;;8.20;6.10;;;10.90;94.30;;;;;;4958190;28;20443;-59
2021/10/27 16:32:31;;;;;;;7.80;6.70;;;10.90;94.50;;;;;;4950263;28;20464;-58
2021/10/27 16:34:57;;;;;;;9.33;7.37;;;10.80;94.70;;;;;;4958218;28;20425;-58
2021/10/27 16:37:24;;;;;;;10.13;6.77;;;10.80;94.90;;;;;;4960594;28;20472;-58
2021/10/27 16:39:50;;;;;;;12.47;7.57;;;10.70;95.30;;;;;;4961720;28;20204;-59
2021/10/27 16:42:17;;;;;;;9.60;6.27;;;10.60;95.70;;;;;;4962931;28;20469;-59
2021/10/27 16:44:43;;;;;;;8.23;5.50;;;10.40;96.10;;;;;;4960198;28;20436;-59
2021/10/27 16:47:09;;;;;;;6.87;4.77;;;10.40;96.40;;;;;;4960757;28;20452;-59
2021/10/27 16:49:36;;;;;;;7.70;5.27;;;10.30;96.60;;;;;;4972744;28;20444;-57
2021/10/27 16:52:02;;;;;;;14.30;5.70;;;10.20;96.70;;;;;;4957660;28;20214;-58
2021/10/27 16:54:27;;;;;;;8.10;5.47;;;10.10;97.00;;;;;;4954241;28;20507;-58
2021/10/27 16:56:53;;;;;;;5.50;3.87;;;10.00;97.30;;;;;;4956775;28;20468;-59
2021/10/27 16:59:19;;;;;;;8.40;3.33;;;10.00;97.50;;;;;;4953580;28;20182;-59
2021/10/27 17:01:46;;;;;;;14.33;4.17;;;9.90;98.00;;;;;;4953433;28;20989;-60
2021/10/27 17:04:12;;;;;;;14.77;4.53;;;9.80;98.20;;;;;;4974991;28;20190;-59
2021/10/27 17:06:38;;;;;;;7.70;3.77;;;9.70;98.60;;;;;;4963557;28;20440;-59
2021/10/27 17:09:04;;;;;;;12.50;3.93;;;9.60;98.70;;;;;;4959598;28;20934;-59
2021/10/27 17:11:30;;;;;;;9.20;3.27;;;9.60;99.10;;;;;;4959013;28;20472;-59
2021/10/27 17:13:56;;;;;;;8.57;4.40;;;9.50;99.30;;;;;;4971310;28;20451;-59
2021/10/27 17:16:22;;;;;;;12.20;5.13;;;9.40;99.40;;;;;;4971105;28;20492;-58
2021/10/27 17:18:49;;;;;;;10.10;4.63;;;9.30;99.50;;;;;;4961976;28;20850;-59
2021/10/27 17:21:15;;;;;;;8.00;3.70;;;9.30;99.90;;;;;;4965707;28;20189;-60
2021/10/27 17:23:41;;;;;;;10.17;4.10;;;9.20;99.90;;;;;;4964195;28;20453;-59
2021/10/27 17:26:07;;;;;;;9.37;4.13;;;9.20;99.90;;;;;;4970240;28;20452;-59
2021/10/27 17:28:34;;;;;;;11.13;4.20;;;9.10;99.90;;;;;;4967938;28;20492;-59
2021/10/27 17:31:00;;;;;;;11.67;4.40;;;9.00;99.90;;;;;;4981285;28;20972;-59
2021/10/27 17:33:26;;;;;;;10.40;3.93;;;8.90;99.90;;;;;;4956711;28;20892;-59
2021/10/27 17:35:55;;;;;;;12.33;4.13;;;8.90;99.90;;;;;;4962031;28;20292;-59
2021/10/27 17:38:20;;;;;;;9.10;5.47;;;8.80;99.90;;;;;;4967733;28;20441;-59
2021/10/27 17:40:48;;;;;;;10.90;6.47;;;8.80;99.90;;;;;;4965686;28;20789;-59
2021/10/27 17:43:14;;;;;;;13.17;7.00;;;8.70;99.90;;;;;;4964327;28;20464;-59